Terminal Aerodrome Forecast
Issued by NWS

Home | Current Version | Previous Version | Graphics & Text | Print | Product List | Glossary On
Versions: 1 2 3 4 5 6 7 8 9 10 11 12 13 14 15 16 17 18 19 20 21 22 23 24 25 26 27
000
FTUS43 KTOP 151335 AAA
TAFFOE
TAF AMD
KFOE 151335Z 1514/1612 17005KT 1 1/2SM BR OVC003
     FM151500 16009KT 3SM BR SCT004
     FM160600 16007KT P6SM VCTS SCT070CB=

USA.gov is the U.S. government's official web portal to all federal, state and local government web resources and services.